Главная страница
METAR-TAF:

METAR-TAF

Аэропорты :

Нутодден, Норвегия

широта: 59-34N, долгота: 009-13E, высота над уровнем моря: 19 м

Текущие метеонаблюдения

Эта сводка был подготовлена 4 часа и 9 минут назад, в 16:50 UTC
Ветер 2 Узел от юго-юго-восточный
Температура 16°C
Влажность 55%
Давление 1008 hPa
Видимость 10 км и более
небольшая облачность на высоте 5800 фута
Рассеянная облачность на высоте 7000 фута

METAR: ENNO 131650Z 16002KT 9999 FEW058 BKN070 16/07 Q1008

Время: 22:59 (20:59 UTC)

Прогноз

Эта сводка был подготовлена 12 часа и 59 минут назад, в 08:00 UTC
Прогноз действительный с 13-го 09 UTC до 13-го 17 UTC
Ветер 3 Узел переменных направлений
Видимость 10 км и более
Отдельные облака на высоте 2000 фута
Рассеянная облачность на высоте 4000 фута
временами
С 13-го 15 UTC до 13-го 17 UTC
небольшая облачность на высоте 3000 фута, мощно-кучевые.
Отдельные облака на высоте 4000 фута

TAF: ENNO 130800Z 1309/1317 VRB03KT 9999 SCT020 BKN040 TEMPO 1315/1317 FEW030TCU SCT040

Метеонаблюдения и прогнозы для более 4000 аэропортов (сводки METAR и TAF).

Имеющиеся станции представлены на карте желтыми и красными точками.

Чтобы увидеть название станции, наведите на нее мышь.

Затем щелкните, чтобы увидеть метеонаблюдения и метеопрогнозы.

Управление картой: чтобы увеличить масштаб, щелкните зеленые кнопки с черным крестиком; чтобы уменьшить масштаб, щелкните зеленую кнопку с тире; для просмотра соседних карт щелкайте зеленые стрелки.


METAR-TAF: